Time;durP1;ratioP1;P1;durP2;ratioP2;P2;SDS_P1;SDS_P2;PMS_P1;PMS_P2;Temp;Humidity;BMP_temperature;BMP_pressure;BME280_temperature;BME280_humidity;BME280_pressure;Samples;Min_cycle;Max_cycle;Signal;HPM_P1;HPM_P2
2023/01/09 00:00:18;;;;;;;0.75;0.40;;;;;;;12.22;100.00;97051.50;7386868;19;20022;-79
2023/01/09 00:02:44;;;;;;;3.92;0.45;;;;;;;12.26;100.00;97047.03;7386905;19;20015;-79
2023/01/09 00:05:13;;;;;;;0.80;0.80;;;;;;;12.83;100.00;97048.22;7389419;19;20014;-80
2023/01/09 00:07:39;;;;;;;1.95;0.82;;;;;;;12.98;100.00;97053.06;7390017;19;20043;-80
2023/01/09 00:10:07;;;;;;;0.47;0.47;;;;;;;13.13;100.00;97055.84;7388200;19;20014;-80
2023/01/09 00:12:33;;;;;;;5.82;0.98;;;;;;;12.56;100.00;97047.09;7389326;19;20030;-79
2023/01/09 00:15:00;;;;;;;1.17;0.85;;;;;;;12.57;100.00;97053.41;7387043;19;20029;-80
2023/01/09 00:17:26;;;;;;;1.08;0.38;;;;;;;12.21;100.00;97061.94;7388314;19;20011;-79
2023/01/09 00:19:52;;;;;;;0.45;0.45;;;;;;;11.03;100.00;97059.47;7389970;19;20380;-80
2023/01/09 00:22:19;;;;;;;0.10;0.00;;;;;;;10.60;100.00;97066.38;7387072;19;20031;-80
2023/01/09 00:24:45;;;;;;;2.78;0.60;;;;;;;10.63;100.00;97065.25;7389583;19;20023;-80
2023/01/09 00:27:13;;;;;;;0.70;0.25;;;;;;;10.29;100.00;97064.56;7390373;19;20052;-80
2023/01/09 00:29:40;;;;;;;8.27;0.50;;;;;;;9.60;100.00;97065.06;7387503;19;20026;-79
2023/01/09 00:32:09;;;;;;;7.43;1.08;;;;;;;10.00;100.00;97060.19;7385337;19;20018;-80
2023/01/09 00:34:36;;;;;;;0.47;0.43;;;;;;;9.42;100.00;97054.81;7386603;19;20071;-79
2023/01/09 00:37:10;;;;;;;0.60;0.43;;;;;;;10.27;100.00;97053.25;7385623;19;20018;-79
2023/01/09 00:39:40;;;;;;;0.10;0.10;;;;;;;9.49;100.00;97065.28;7386138;19;20010;-80
2023/01/09 00:42:11;;;;;;;0.90;0.80;;;;;;;10.41;100.00;97068.59;7388417;19;20022;-78
2023/01/09 00:44:47;;;;;;;0.32;0.32;;;;;;;10.25;100.00;97072.53;7388266;19;20038;-79
2023/01/09 00:47:26;;;;;;;1.40;0.45;;;;;;;9.14;100.00;97077.59;7389857;19;20046;-77
2023/01/09 00:49:54;;;;;;;3.28;1.50;;;;;;;8.54;100.00;97089.75;7389224;19;20030;-79
2023/01/09 00:52:21;;;;;;;0.20;0.20;;;;;;;9.27;100.00;97087.22;7388555;19;20074;-78
2023/01/09 00:54:48;;;;;;;1.52;0.30;;;;;;;10.75;100.00;97084.47;7387463;19;20017;-77
2023/01/09 00:57:14;;;;;;;0.30;0.30;;;;;;;8.36;100.00;97096.81;7387959;19;20007;-77
2023/01/09 00:59:41;;;;;;;0.35;0.35;;;;;;;9.14;100.00;97096.25;7388582;19;20860;-77
2023/01/09 01:02:07;;;;;;;0.20;0.20;;;;;;;8.89;100.00;97092.94;7387126;19;20477;-77
2023/01/09 01:10:05;;;;;;;0.60;0.20;;;;;;;7.05;100.00;97107.03;7386351;19;20373;-77
2023/01/09 01:12:31;;;;;;;1.85;0.50;;;;;;;6.80;100.00;97113.81;7384721;19;20767;-79
2023/01/09 01:14:58;;;;;;;0.30;0.30;;;;;;;7.31;100.00;97118.34;7385926;19;20019;-77
2023/01/09 01:17:24;;;;;;;0.63;0.32;;;;;;;7.40;100.00;97126.31;7389169;19;20018;-77
2023/01/09 01:19:50;;;;;;;0.20;0.20;;;;;;;5.67;100.00;97127.34;7386016;19;20015;-77
2023/01/09 01:22:16;;;;;;;1.40;0.60;;;;;;;4.93;100.00;97122.56;7386820;19;20073;-79
2023/01/09 01:24:42;;;;;;;0.80;0.77;;;;;;;5.41;100.00;97129.72;7385710;19;20078;-77
2023/01/09 01:27:08;;;;;;;0.77;0.40;;;;;;;5.13;100.00;97127.03;7388134;19;20018;-79
2023/01/09 01:29:35;;;;;;;0.35;0.35;;;;;;;4.71;100.00;97130.09;7387559;19;20050;-79
2023/01/09 01:32:01;;;;;;;0.30;0.10;;;;;;;4.79;100.00;97144.88;7384285;19;20011;-77
2023/01/09 01:34:28;;;;;;;5.00;0.38;;;;;;;4.51;100.00;97148.41;7385066;19;20015;-79
2023/01/09 01:36:54;;;;;;;0.30;0.30;;;;;;;3.95;100.00;97151.56;7384949;19;20018;-80
2023/01/09 01:39:20;;;;;;;0.35;0.35;;;;;;;3.98;100.00;97161.59;7385475;19;20015;-77
2023/01/09 01:41:46;;;;;;;0.40;0.40;;;;;;;4.08;100.00;97163.59;7387336;19;20445;-77
2023/01/09 01:44:50;;;;;;;0.10;0.10;;;;;;;4.51;100.00;97164.94;7385816;19;20052;-79
2023/01/09 01:47:19;;;;;;;0.10;0.10;;;;;;;3.91;100.00;97167.56;7386816;19;20687;-80
2023/01/09 01:49:46;;;;;;;0.85;0.57;;;;;;;4.02;100.00;97168.34;7386133;19;20037;-80
2023/01/09 01:52:12;;;;;;;0.65;0.52;;;;;;;4.32;100.00;97174.94;7382925;19;20077;-80
2023/01/09 01:54:39;;;;;;;3.90;0.35;;;;;;;4.03;100.00;97171.88;7383320;19;20043;-80
2023/01/09 01:57:06;;;;;;;0.50;0.45;;;;;;;4.25;100.00;97175.41;7385994;19;20031;-80
2023/01/09 01:59:49;;;;;;;0.20;0.20;;;;;;;4.27;100.00;97181.16;7384379;19;20078;-79
2023/01/09 02:02:22;;;;;;;0.10;0.10;;;;;;;4.52;100.00;97182.97;7385559;19;20022;-79
2023/01/09 02:04:51;;;;;;;0.17;0.17;;;;;;;4.63;100.00;97191.22;7385262;19;20022;-79
2023/01/09 02:07:17;;;;;;;1.65;0.57;;;;;;;4.73;100.00;97199.25;7383845;19;20377;-79
2023/01/09 02:09:43;;;;;;;0.10;0.00;;;;;;;4.81;100.00;97197.53;7386488;19;20451;-79
2023/01/09 02:12:22;;;;;;;0.43;0.20;;;;;;;5.14;100.00;97186.47;7389355;19;20475;-79
2023/01/09 02:15:04;;;;;;;2.65;0.52;;;;;;;5.13;100.00;97196.00;7383769;19;20018;-79
2023/01/09 02:17:39;;;;;;;;;;;;;;;4.39;100.00;97204.00;7383640;19;20494;-80
2023/01/09 02:20:20;;;;;;;7.13;1.27;;;;;;;4.91;100.00;97201.53;7385078;19;19919;-79
2023/01/09 02:22:49;;;;;;;0.20;0.20;;;;;;;4.56;100.00;97211.03;7381615;19;20042;-80
2023/01/09 02:25:31;;;;;;;5.38;0.38;;;;;;;4.61;100.00;97213.03;7384069;19;20019;-79
2023/01/09 02:28:12;;;;;;;7.47;0.30;;;;;;;4.69;100.00;97209.78;7386317;19;20049;-78
2023/01/09 02:30:41;;;;;;;;;;;;;;;4.46;100.00;97218.00;7383776;19;20099;-78
2023/01/09 02:33:34;;;;;;;4.40;0.30;;;;;;;4.61;100.00;97226.06;7384349;19;19982;-77
2023/01/09 02:36:00;;;;;;;2.50;0.32;;;;;;;4.49;100.00;97228.06;7383734;19;20010;-77
2023/01/09 02:38:50;;;;;;;0.10;0.10;;;;;;;4.50;100.00;97232.31;7388683;19;20042;-78
2023/01/09 02:41:24;;;;;;;0.37;0.30;;;;;;;4.51;100.00;97236.56;7385297;19;20046;-77
2023/01/09 02:44:16;;;;;;;0.10;0.10;;;;;;;4.40;100.00;97247.56;7383992;19;20280;-77
2023/01/09 02:46:42;;;;;;;0.10;0.10;;;;;;;4.36;100.00;97251.81;7384035;19;20018;-78
2023/01/09 02:49:09;;;;;;;0.57;0.35;;;;;;;4.31;100.00;97256.06;7389540;19;20019;-77
2023/01/09 02:51:44;;;;;;;0.20;0.10;;;;;;;4.05;100.00;97260.97;7383300;19;20022;-77
2023/01/09 02:54:19;;;;;;;0.20;0.15;;;;;;;4.07;100.00;97252.97;7384316;19;20025;-77
2023/01/09 02:57:01;;;;;;;0.10;0.00;;;;;;;4.04;100.00;97262.22;7384313;19;20010;-77
2023/01/09 02:59:55;;;;;;;0.40;0.20;;;;;;;3.94;100.00;97280.22;7382821;19;20018;-78
2023/01/09 03:02:21;;;;;;;0.75;0.30;;;;;;;3.88;100.00;97273.91;7383648;19;20029;-77
2023/01/09 03:05:12;;;;;;;0.20;0.20;;;;;;;3.81;100.00;97279.91;7384707;19;20014;-77
2023/01/09 03:07:49;;;;;;;5.00;1.58;;;;;;;3.73;100.00;97276.84;7386574;19;20018;-78
2023/01/09 03:10:28;;;;;;;0.30;0.20;;;;;;;3.63;100.00;97277.53;7384040;19;20019;-77
2023/01/09 03:12:58;;;;;;;11.13;0.45;;;;;;;3.58;100.00;97283.75;7383631;19;20007;-77
2023/01/09 03:15:28;;;;;;;3.30;1.33;;;;;;;3.49;100.00;97289.44;7382883;19;20086;-77
2023/01/09 03:17:55;;;;;;;0.10;0.10;;;;;;;3.47;100.00;97289.19;7386335;19;20026;-78
2023/01/09 03:20:26;;;;;;;0.30;0.30;;;;;;;3.42;100.00;97292.66;7382569;19;20019;-77
2023/01/09 03:22:55;;;;;;;0.10;0.10;;;;;;;3.36;100.00;97300.09;7383024;19;20082;-77
2023/01/09 03:25:22;;;;;;;0.80;0.32;;;;;;;3.38;100.00;97298.38;7383109;19;20504;-76
2023/01/09 03:27:52;;;;;;;0.10;0.10;;;;;;;3.33;100.00;97290.09;7386696;19;20027;-76
2023/01/09 03:30:19;;;;;;;0.20;0.17;;;;;;;3.39;100.00;97299.13;7383672;19;20813;-77
2023/01/09 03:32:45;;;;;;;0.10;0.10;;;;;;;3.46;100.00;97298.69;7383502;19;20297;-78
2023/01/09 03:35:11;;;;;;;0.10;0.10;;;;;;;3.64;100.00;97301.03;7387419;19;20026;-78
2023/01/09 03:37:37;;;;;;;0.10;0.10;;;;;;;3.54;100.00;97310.75;7392175;19;20435;-77
2023/01/09 03:40:04;;;;;;;1.58;0.47;;;;;;;3.53;100.00;97303.75;7391160;19;20018;-80
2023/01/09 03:42:30;;;;;;;0.10;0.10;;;;;;;3.52;100.00;97307.72;7388858;19;20031;-77
2023/01/09 03:44:56;;;;;;;2.63;0.55;;;;;;;3.58;100.00;97312.03;7389752;19;20023;-79
2023/01/09 03:47:22;;;;;;;0.10;0.10;;;;;;;3.55;100.00;97313.00;7390616;19;20074;-77
2023/01/09 03:49:48;;;;;;;0.30;0.30;;;;;;;3.64;100.00;97323.81;7389955;19;20070;-77
2023/01/09 03:52:14;;;;;;;0.10;0.10;;;;;;;3.65;100.00;97316.31;7389564;19;20043;-78
2023/01/09 03:54:41;;;;;;;0.35;0.13;;;;;;;3.71;100.00;97319.84;7386509;19;20018;-77
2023/01/09 03:57:07;;;;;;;2.63;0.35;;;;;;;3.64;100.00;97314.81;7388322;19;20017;-77
2023/01/09 03:59:33;;;;;;;0.20;0.20;;;;;;;3.54;100.00;97322.50;7389474;19;20026;-78
2023/01/09 04:01:59;;;;;;;0.30;0.20;;;;;;;3.58;100.00;97317.53;7388624;19;20518;-77
2023/01/09 04:04:25;;;;;;;0.20;0.20;;;;;;;3.70;100.00;97329.38;7389089;19;20025;-77
2023/01/09 04:06:51;;;;;;;6.32;0.73;;;;;;;3.49;100.00;97331.47;7389740;19;20014;-78
2023/01/09 04:09:17;;;;;;;0.13;0.13;;;;;;;3.56;100.00;97324.75;7395069;19;20019;-77
2023/01/09 04:11:43;;;;;;;0.10;0.10;;;;;;;3.58;100.00;97336.03;7391458;19;20029;-77
2023/01/09 04:14:10;;;;;;;0.20;0.20;;;;;;;3.54;100.00;97328.00;7385752;19;20172;-77
2023/01/09 04:16:36;;;;;;;13.68;0.55;;;;;;;3.61;100.00;97335.81;7387163;19;20111;-77
2023/01/09 04:19:02;;;;;;;3.60;0.20;;;;;;;3.49;100.00;97336.22;7391249;19;20386;-77
2023/01/09 04:21:28;;;;;;;0.20;0.20;;;;;;;3.56;100.00;97341.25;7388822;19;20019;-78
2023/01/09 04:23:54;;;;;;;1.38;0.30;;;;;;;3.61;100.00;97348.81;7387216;19;20361;-78
2023/01/09 04:26:20;;;;;;;0.85;0.73;;;;;;;3.46;100.00;97353.72;7390707;19;20014;-78
2023/01/09 04:28:46;;;;;;;0.10;0.10;;;;;;;3.58;100.00;97358.03;7391883;19;20495;-78
2023/01/09 04:31:13;;;;;;;23.33;0.68;;;;;;;3.44;100.00;97351.44;7388709;19;20022;-79
2023/01/09 04:33:39;;;;;;;0.10;0.10;;;;;;;3.44;100.00;97351.44;7386320;19;20109;-79
2023/01/09 04:36:05;;;;;;;0.25;0.25;;;;;;;3.40;100.00;97356.41;7389248;19;20027;-78
2023/01/09 04:38:32;;;;;;;0.75;0.20;;;;;;;3.33;100.00;97358.84;7391589;19;20746;-79
2023/01/09 04:40:58;;;;;;;0.60;0.40;;;;;;;3.41;100.00;97360.66;7390600;19;20613;-77
2023/01/09 04:43:24;;;;;;;0.22;0.22;;;;;;;3.32;100.00;97371.09;7386679;19;20013;-78
2023/01/09 04:45:50;;;;;;;1.85;0.73;;;;;;;3.25;100.00;97371.53;7388712;19;20038;-78
2023/01/09 04:48:16;;;;;;;0.68;0.68;;;;;;;3.20;100.00;97361.22;7392131;19;20018;-77
2023/01/09 04:50:43;;;;;;;0.10;0.10;;;;;;;3.23;100.00;97368.53;7385801;19;20018;-78
2023/01/09 04:53:09;;;;;;;0.10;0.10;;;;;;;3.27;100.00;97369.06;7385944;19;20030;-77
2023/01/09 04:55:35;;;;;;;2.15;1.02;;;;;;;3.36;100.00;97371.63;7387076;19;20014;-78
2023/01/09 04:58:01;;;;;;;7.18;0.40;;;;;;;3.33;100.00;97378.88;7390567;19;20011;-78
2023/01/09 05:00:27;;;;;;;0.17;0.17;;;;;;;3.19;100.00;97381.72;7388758;19;20035;-78
2023/01/09 05:02:53;;;;;;;2.85;0.38;;;;;;;3.19;100.00;97379.72;7387568;19;20037;-79
2023/01/09 05:05:19;;;;;;;0.13;0.13;;;;;;;3.10;100.00;97387.41;7388619;19;20385;-76
2023/01/09 05:07:45;;;;;;;0.95;0.22;;;;;;;3.01;100.00;97391.78;7388583;19;20010;-78
2023/01/09 05:10:12;;;;;;;0.15;0.15;;;;;;;3.00;100.00;97395.81;7386564;19;20625;-79
2023/01/09 05:12:38;;;;;;;0.20;0.20;;;;;;;3.01;100.00;97400.03;7386202;19;20022;-79
2023/01/09 05:15:06;;;;;;;2.45;0.55;;;;;;;2.57;100.00;97390.56;7388517;19;20031;-78
2023/01/09 05:17:32;;;;;;;0.22;0.22;;;;;;;2.51;100.00;97395.25;7387024;19;20027;-79
2023/01/09 05:19:59;;;;;;;0.20;0.10;;;;;;;2.53;100.00;97396.28;7388076;19;20014;-79
2023/01/09 05:22:26;;;;;;;0.20;0.20;;;;;;;2.45;100.00;97389.66;7386779;19;20018;-79
2023/01/09 05:24:52;;;;;;;7.72;0.52;;;;;;;2.46;100.00;97396.69;7388835;19;20031;-79
2023/01/09 05:27:19;;;;;;;0.10;0.10;;;;;;;2.47;100.00;97403.66;7385592;19;20023;-78
2023/01/09 05:29:45;;;;;;;1.25;1.05;;;;;;;2.41;100.00;97400.09;7387385;19;20091;-79
2023/01/09 05:32:11;;;;;;;3.92;0.45;;;;;;;2.43;100.00;97394.13;7382754;19;20026;-78
2023/01/09 05:34:37;;;;;;;0.40;0.30;;;;;;;2.41;100.00;97394.59;7383052;19;20019;-78
2023/01/09 05:37:03;;;;;;;0.20;0.20;;;;;;;2.39;100.00;97401.81;7385461;19;20373;-78
2023/01/09 05:39:29;;;;;;;10.82;0.63;;;;;;;2.35;100.00;97406.75;7385664;19;20477;-78
2023/01/09 05:41:55;;;;;;;0.10;0.10;;;;;;;2.39;100.00;97421.81;7390067;19;20035;-78
2023/01/09 05:44:21;;;;;;;0.10;0.10;;;;;;;2.50;100.00;97426.69;7387919;19;20041;-78
2023/01/09 05:46:47;;;;;;;0.20;0.20;;;;;;;2.66;100.00;97426.13;7384373;19;20022;-78
2023/01/09 05:49:14;;;;;;;0.43;0.43;;;;;;;2.50;100.00;97430.19;7390416;19;20035;-78
2023/01/09 05:51:40;;;;;;;0.75;0.25;;;;;;;2.38;100.00;97434.03;7385931;19;20090;-78
2023/01/09 05:54:06;;;;;;;1.50;0.85;;;;;;;2.41;100.00;97437.78;7385623;19;20018;-77
2023/01/09 05:56:32;;;;;;;0.17;0.10;;;;;;;2.36;100.00;97428.25;7383879;19;20021;-76
2023/01/09 05:58:58;;;;;;;1.30;0.70;;;;;;;2.34;100.00;97441.69;7387384;19;20074;-77
2023/01/09 06:01:24;;;;;;;0.17;0.17;;;;;;;2.32;100.00;97446.91;7385557;19;20021;-78
2023/01/09 06:03:51;;;;;;;7.25;0.75;;;;;;;2.32;100.00;97446.91;7384502;19;20014;-77
2023/01/09 06:06:17;;;;;;;2.50;0.40;;;;;;;2.32;100.00;97452.41;7387416;19;20508;-78
2023/01/09 06:08:43;;;;;;;2.85;0.35;;;;;;;2.35;100.00;97456.94;7387956;19;20387;-77
2023/01/09 06:11:09;;;;;;;0.32;0.32;;;;;;;2.44;100.00;97465.06;7386148;19;20025;-79
2023/01/09 06:13:35;;;;;;;0.80;0.80;;;;;;;2.75;100.00;97476.19;7384705;19;20025;-78
2023/01/09 06:16:01;;;;;;;0.20;0.20;;;;;;;2.91;100.00;97477.66;7386354;19;20351;-78
2023/01/09 06:18:27;;;;;;;0.57;0.57;;;;;;;3.49;100.00;97487.53;7389728;19;20039;-78
2023/01/09 06:20:53;;;;;;;0.35;0.30;;;;;;;3.41;100.00;97486.44;7387328;19;20027;-78
2023/01/09 06:23:20;;;;;;;0.10;0.10;;;;;;;4.01;100.00;97486.25;7381695;19;20018;-78
2023/01/09 06:25:46;;;;;;;1.45;0.68;;;;;;;3.81;100.00;97498.09;7385938;19;20421;-78
2023/01/09 06:28:12;;;;;;;5.20;0.85;;;;;;;3.99;100.00;97505.25;7386966;19;20022;-78
2023/01/09 06:30:38;;;;;;;0.15;0.15;;;;;;;3.98;100.00;97514.78;7385411;19;20472;-78
2023/01/09 06:33:04;;;;;;;17.17;1.27;;;;;;;4.12;100.00;97515.84;7385448;19;20018;-79
2023/01/09 06:35:30;;;;;;;0.10;0.10;;;;;;;4.26;100.00;97518.50;7386235;19;20026;-80
2023/01/09 06:38:00;;;;;;;1.13;0.10;;;;;;;4.40;100.00;97523.09;7386082;19;20034;-79
2023/01/09 06:40:26;;;;;;;1.08;0.30;;;;;;;4.55;100.00;97534.72;7384319;19;20114;-80
2023/01/09 06:42:52;;;;;;;1.02;1.02;;;;;;;5.22;100.00;97535.06;7384170;19;20026;-79
2023/01/09 06:45:18;;;;;;;2.90;1.55;;;;;;;5.47;100.00;97531.41;7383188;19;20018;-79
2023/01/09 06:47:44;;;;;;;0.10;0.10;;;;;;;5.37;100.00;97535.66;7385747;19;20022;-80
2023/01/09 06:50:10;;;;;;;12.55;2.10;;;;;;;6.01;100.00;97538.31;7386164;19;20015;-79
2023/01/09 06:52:37;;;;;;;1.10;0.63;;;;;;;5.71;100.00;97548.28;7384882;19;20018;-79
2023/01/09 06:55:03;;;;;;;0.25;0.25;;;;;;;5.59;100.00;97549.50;7383888;19;20010;-80
2023/01/09 06:57:29;;;;;;;0.52;0.52;;;;;;;5.35;100.00;97560.19;7387797;19;20455;-82
2023/01/09 06:59:56;;;;;;;5.68;1.23;;;;;;;5.40;100.00;97565.00;7384280;19;20021;-80
2023/01/09 07:02:22;;;;;;;0.68;0.57;;;;;;;5.45;100.00;97574.53;7383366;19;20011;-80
2023/01/09 07:04:48;;;;;;;17.25;2.83;;;;;;;5.48;100.00;97568.03;7385978;19;20019;-80
2023/01/09 07:07:15;;;;;;;12.00;1.02;;;;;;;5.52;100.00;97574.84;7384792;19;20018;-80
2023/01/09 07:09:41;;;;;;;1.02;0.10;;;;;;;5.62;100.00;97581.63;7389972;19;20014;-80
2023/01/09 07:12:07;;;;;;;0.10;0.10;;;;;;;5.76;100.00;97580.66;7394309;19;20579;-79
2023/01/09 07:14:33;;;;;;;0.10;0.10;;;;;;;5.75;100.00;97586.69;7390281;19;20525;-80
2023/01/09 07:16:59;;;;;;;4.85;0.80;;;;;;;5.79;100.00;97592.72;7390954;19;20045;-80
2023/01/09 07:19:25;;;;;;;0.10;0.08;;;;;;;6.13;100.00;97593.59;7389574;19;20386;-79
2023/01/09 07:21:52;;;;;;;0.90;0.20;;;;;;;6.28;100.00;97583.06;7388297;19;20793;-80
2023/01/09 07:24:18;;;;;;;0.10;0.00;;;;;;;6.27;100.00;97595.34;7393311;19;20595;-80
2023/01/09 07:26:44;;;;;;;1.15;0.95;;;;;;;6.43;100.00;97589.81;7393102;19;20033;-79
2023/01/09 07:29:10;;;;;;;0.93;0.55;;;;;;;6.29;100.00;97590.06;7396146;19;20026;-79
2023/01/09 07:31:36;;;;;;;0.10;0.00;;;;;;;6.09;100.00;97600.09;7390117;19;20011;-79
2023/01/09 07:34:02;;;;;;;0.30;0.15;;;;;;;6.55;100.00;97601.63;7387941;19;20022;-79
2023/01/09 07:36:28;;;;;;;1.95;0.52;;;;;;;6.44;100.00;97602.41;7393647;19;20018;-79
2023/01/09 07:38:55;;;;;;;0.32;0.20;;;;;;;6.57;100.00;97616.47;7394084;19;20524;-79
2023/01/09 07:41:21;;;;;;;0.20;0.17;;;;;;;6.62;100.00;97620.50;7396377;19;20023;-79
2023/01/09 07:43:47;;;;;;;1.20;0.30;;;;;;;6.31;100.00;97626.25;7387738;19;20503;-79
2023/01/09 07:46:13;;;;;;;0.90;0.40;;;;;;;6.17;100.00;97632.78;7389875;19;20346;-80
2023/01/09 07:48:39;;;;;;;0.10;0.10;;;;;;;6.43;100.00;97636.09;7394539;19;20031;-80
2023/01/09 07:51:05;;;;;;;1.42;0.50;;;;;;;6.46;100.00;97646.13;7390322;19;20046;-79
2023/01/09 07:53:31;;;;;;;0.68;0.20;;;;;;;7.05;100.00;97656.94;7389049;19;20100;-79
2023/01/09 07:55:58;;;;;;;0.40;0.20;;;;;;;6.59;100.00;97663.75;7390491;19;20018;-79
2023/01/09 07:58:24;;;;;;;0.55;0.55;;;;;;;6.30;100.00;97666.97;7392603;19;20026;-79
2023/01/09 08:00:50;;;;;;;0.30;0.20;;;;;;;6.22;100.00;97667.94;7394491;19;20035;-78
2023/01/09 08:03:16;;;;;;;0.10;0.10;;;;;;;6.33;100.00;97671.50;7392058;19;20019;-80
2023/01/09 08:05:42;;;;;;;0.30;0.30;;;;;;;6.40;100.00;97679.31;7392035;19;20038;-78
2023/01/09 08:08:09;;;;;;;0.10;0.10;;;;;;;6.26;100.00;97687.81;7392545;19;20014;-79
2023/01/09 08:10:35;;;;;;;0.20;0.15;;;;;;;6.32;100.00;97692.13;7393633;19;20030;-79
2023/01/09 08:13:01;;;;;;;1.17;0.32;;;;;;;6.05;100.00;97699.06;7391999;19;20103;-79
2023/01/09 08:15:27;;;;;;;0.20;0.20;;;;;;;6.06;100.00;97724.69;7391858;19;20350;-78
2023/01/09 08:17:53;;;;;;;0.30;0.30;;;;;;;6.08;100.00;97742.28;7394240;19;20025;-78
2023/01/09 08:20:20;;;;;;;0.25;0.25;;;;;;;6.13;100.00;97741.53;7389401;19;20017;-80
2023/01/09 08:22:50;;;;;;;0.40;0.40;;;;;;;6.16;100.00;97741.78;7389653;19;20018;-80
2023/01/09 08:25:17;;;;;;;0.10;0.10;;;;;;;9.80;100.00;97745.38;7391458;19;20014;-80
2023/01/09 08:27:43;;;;;;;0.20;0.20;;;;;;;6.66;100.00;97754.50;7389924;19;20014;-79
2023/01/09 08:30:10;;;;;;;0.20;0.20;;;;;;;8.09;100.00;97758.41;7388148;19;20021;-82
2023/01/09 08:32:37;;;;;;;0.20;0.20;;;;;;;8.52;100.00;97769.84;7385307;19;20488;-79
2023/01/09 08:35:04;;;;;;;0.10;0.10;;;;;;;8.44;100.00;97774.44;7387550;19;20041;-81
2023/01/09 08:37:30;;;;;;;0.35;0.35;;;;;;;8.48;100.00;97780.47;7388948;19;20533;-80
2023/01/09 08:39:56;;;;;;;0.10;0.00;;;;;;;8.21;100.00;97789.59;7388057;19;20027;-80
2023/01/09 08:47:55;;;;;;;0.10;0.10;;;;;;;9.02;100.00;97811.19;7392140;19;20055;-80
2023/01/09 08:50:22;;;;;;;0.10;0.10;;;;;;;7.07;100.00;97832.28;7388688;19;20093;-80
2023/01/09 08:52:48;;;;;;;0.25;0.25;;;;;;;6.85;100.00;97837.78;7387053;19;20043;-81
2023/01/09 08:55:14;;;;;;;8.68;0.40;;;;;;;6.80;100.00;97844.03;7393834;19;20018;-80
2023/01/09 08:57:49;;;;;;;0.10;0.10;;;;;;;6.77;100.00;97848.59;7398388;19;20085;-80
2023/01/09 09:00:20;;;;;;;0.20;0.20;;;;;;;6.96;100.00;97851.63;7395273;19;20010;-81
2023/01/09 09:02:58;;;;;;;0.10;0.00;;;;;;;7.05;100.00;97854.19;7392089;19;20461;-86
2023/01/09 09:05:26;;;;;;;0.52;0.52;;;;;;;7.05;100.00;97865.25;7394535;19;20014;-85
2023/01/09 09:07:53;;;;;;;0.10;0.00;;;;;;;7.08;100.00;97872.53;7395378;19;20018;-86
2023/01/09 09:10:21;;;;;;;8.13;0.95;;;;;;;7.36;100.00;97878.88;7394247;19;20019;-86
2023/01/09 09:12:49;;;;;;;6.22;0.52;;;;;;;7.28;100.00;97886.16;7394383;19;20014;-86
2023/01/09 09:15:22;;;;;;;0.20;0.20;;;;;;;7.28;100.00;97894.47;7394249;19;20007;-86
2023/01/09 09:17:57;;;;;;;0.85;0.75;;;;;;;7.20;100.00;97887.91;7396109;19;20014;-87
2023/01/09 09:20:26;;;;;;;0.10;0.03;;;;;;;10.86;100.00;97880.50;7398769;19;20007;-87
2023/01/09 09:22:52;;;;;;;1.27;0.60;;;;;;;9.47;100.00;97890.16;7401965;19;20039;-88
2023/01/09 09:25:19;;;;;;;0.20;0.10;;;;;;;9.36;100.00;97892.25;7394815;19;20048;-87
2023/01/09 09:27:45;;;;;;;0.20;0.20;;;;;;;9.40;100.00;97901.09;7394876;19;20018;-85
2023/01/09 09:30:13;;;;;;;1.65;0.38;;;;;;;9.25;100.00;97909.75;7392053;19;20106;-86
2023/01/09 09:32:40;;;;;;;1.17;0.15;;;;;;;8.77;100.00;97915.78;7389141;19;20018;-87
2023/01/09 09:35:07;;;;;;;0.45;0.45;;;;;;;9.07;100.00;97908.31;7390819;19;20023;-85
2023/01/09 09:37:33;;;;;;;0.30;0.30;;;;;;;9.04;100.00;97920.47;7392864;19;20021;-87
2023/01/09 09:39:59;;;;;;;1.20;0.90;;;;;;;9.28;100.00;97936.50;7393358;19;20066;-87
2023/01/09 09:46:10;;;;;;;0.10;0.00;;;;;;;9.50;100.00;97949.50;7392801;19;20031;-87
2023/01/09 09:48:42;;;;;;;1.42;0.20;;;;;;;10.55;100.00;97954.25;7395048;19;20014;-86
2023/01/09 09:51:17;;;;;;;0.45;0.10;;;;;;;9.60;100.00;97970.16;7393217;19;20011;-86
2023/01/09 09:53:54;;;;;;;1.33;0.32;;;;;;;9.49;100.00;97975.78;7391326;19;20039;-86
2023/01/09 09:56:22;;;;;;;0.10;0.10;;;;;;;9.66;100.00;97984.75;7393219;19;20018;-86
2023/01/09 09:58:54;;;;;;;8.30;0.63;;;;;;;9.32;100.00;98000.09;7396643;19;20014;-86
2023/01/09 10:01:36;;;;;;;0.10;0.08;;;;;;;8.24;100.00;97997.31;7394317;19;20758;-86
2023/01/09 10:04:09;;;;;;;0.85;0.28;;;;;;;8.52;100.00;98013.97;7391990;19;20500;-86
2023/01/09 10:06:50;;;;;;;0.10;0.00;;;;;;;8.29;100.00;98013.22;7395296;19;20010;-86
2023/01/09 10:09:16;;;;;;;0.10;0.10;;;;;;;8.18;100.00;98018.75;7391808;19;20027;-81
2023/01/09 10:11:50;;;;;;;0.35;0.35;;;;;;;7.85;100.00;98029.03;7388252;19;20018;-84
2023/01/09 10:14:16;;;;;;;0.25;0.20;;;;;;;7.88;100.00;98023.25;7384191;19;20026;-88
2023/01/09 10:17:02;;;;;;;0.20;0.17;;;;;;;7.75;100.00;98025.75;7386921;19;20491;-83
2023/01/09 10:19:46;;;;;;;0.10;0.10;;;;;;;7.99;100.00;98030.84;7387530;19;20073;-83
2023/01/09 10:22:25;;;;;;;0.10;0.10;;;;;;;7.79;100.00;98053.22;7388840;19;20019;-84
2023/01/09 10:25:03;;;;;;;8.18;0.55;;;;;;;7.73;100.00;98055.22;7391654;19;20015;-85
2023/01/09 10:27:48;;;;;;;0.20;0.15;;;;;;;7.61;100.00;98063.50;7392601;19;20018;-84
2023/01/09 10:30:24;;;;;;;4.25;0.90;;;;;;;7.62;100.00;98078.84;7390285;19;20014;-84
2023/01/09 10:33:23;;;;;;;0.82;0.25;;;;;;;7.91;100.00;98071.38;7389536;19;20094;-85
2023/01/09 10:35:58;;;;;;;13.70;0.45;;;;;;;7.81;100.00;98073.63;7394639;19;20014;-86
2023/01/09 10:38:30;;;;;;;0.10;0.10;;;;;;;8.08;100.00;98086.78;7394702;19;20205;-91
2023/01/09 10:41:02;;;;;;;0.10;0.10;;;;;;;7.92;100.00;98083.97;7389525;19;20014;-84
2023/01/09 10:43:52;;;;;;;0.20;0.20;;;;;;;7.92;100.00;98089.53;7389785;19;20029;-82
2023/01/09 10:46:33;;;;;;;0.20;0.15;;;;;;;7.71;100.00;98096.53;7392076;19;20041;-85
2023/01/09 10:49:05;;;;;;;0.68;0.10;;;;;;;8.05;100.00;98103.66;7399601;19;20606;-83
2023/01/09 10:52:01;;;;;;;0.10;0.10;;;;;;;8.00;100.00;98099.63;7393643;19;20031;-82
2023/01/09 10:54:28;;;;;;;0.40;0.20;;;;;;;7.99;100.00;98100.13;7394471;19;20108;-82
2023/01/09 10:56:59;;;;;;;0.45;0.22;;;;;;;8.00;100.00;98107.94;7392067;19;20015;-83
2023/01/09 10:59:26;;;;;;;2.72;0.52;;;;;;;9.42;100.00;98110.41;7394910;19;20019;-85
2023/01/09 11:01:52;;;;;;;0.10;0.00;;;;;;;9.58;100.00;98111.63;7396307;19;20830;-80
2023/01/09 11:04:35;;;;;;;0.17;0.17;;;;;;;8.37;100.00;98119.63;7393951;19;20014;-79
2023/01/09 11:07:11;;;;;;;0.35;0.35;;;;;;;8.21;100.00;98116.78;7389941;19;20014;-82
2023/01/09 11:10:00;;;;;;;0.28;0.28;;;;;;;8.19;100.00;98114.53;7391777;19;20039;-81
2023/01/09 11:12:31;;;;;;;0.10;0.00;;;;;;;8.23;100.00;98130.91;7390673;19;20089;-81
2023/01/09 11:15:18;;;;;;;0.10;0.00;;;;;;;8.30;100.00;98141.53;7393365;19;20420;-82
2023/01/09 11:17:50;;;;;;;3.40;0.38;;;;;;;8.15;100.00;98158.38;7389792;19;20010;-86
2023/01/09 11:20:27;;;;;;;0.32;0.32;;;;;;;8.47;100.00;98177.66;7395179;19;20017;-87
2023/01/09 11:22:57;;;;;;;0.10;0.10;;;;;;;8.19;100.00;98149.81;7396450;19;20402;-86
2023/01/09 11:25:26;;;;;;;0.15;0.10;;;;;;;8.24;100.00;98149.06;7403503;19;20018;-84
2023/01/09 11:28:01;;;;;;;0.50;0.10;;;;;;;7.85;100.00;98150.97;7398116;19;20082;-91
2023/01/09 11:30:29;;;;;;;1.95;0.85;;;;;;;8.14;100.00;98158.88;7398858;19;20043;-84
2023/01/09 11:32:57;;;;;;;1.85;0.38;;;;;;;7.53;100.00;98158.66;7396539;19;20086;-93
2023/01/09 11:35:26;;;;;;;5.57;0.77;;;;;;;7.40;100.00;98166.63;7401567;19;20025;-95
2023/01/09 11:38:07;;;;;;;0.73;0.55;;;;;;;8.50;100.00;98149.66;7400315;19;20014;-92
2023/01/09 11:40:46;;;;;;;11.60;0.98;;;;;;;8.73;100.00;98173.38;7397810;19;20026;-92
2023/01/09 11:43:15;;;;;;;0.28;0.28;;;;;;;9.03;100.00;98184.75;7391853;19;20098;-92
2023/01/09 11:45:45;;;;;;;0.30;0.28;;;;;;;8.57;100.00;98188.00;7398010;19;20010;-90
2023/01/09 11:48:27;;;;;;;1.23;0.17;;;;;;;9.06;100.00;98190.03;7393426;19;20082;-91
2023/01/09 11:50:56;;;;;;;0.57;0.40;;;;;;;9.23;100.00;98192.03;7388947;19;20022;-91
2023/01/09 11:53:23;;;;;;;0.93;0.20;;;;;;;9.23;100.00;98184.47;7388725;19;20024;-91
2023/01/09 11:56:01;;;;;;;11.55;1.77;;;;;;;9.16;100.00;98194.06;7393788;19;20014;-90
2023/01/09 11:58:32;;;;;;;4.95;0.57;;;;;;;8.74;100.00;98194.31;7396559;19;20014;-91